createdAt,value
2022-09-23T00:02:02.421Z,30.25
2022-09-23T00:04:31.546Z,29.58
2022-09-23T00:07:00.731Z,31.25
2022-09-23T00:09:30.131Z,35.17
2022-09-23T00:11:59.887Z,38.17
2022-09-23T00:14:29.240Z,34.70
2022-09-23T00:16:58.497Z,35.67
2022-09-23T00:19:29.588Z,35.88
2022-09-23T00:21:58.873Z,32.88
2022-09-23T00:24:32.400Z,31.33
2022-09-23T00:27:01.925Z,27.55
2022-09-23T00:29:31.962Z,30.55
2022-09-23T00:32:01.237Z,28.48
2022-09-23T00:34:32.057Z,28.15
2022-09-23T00:37:01.309Z,28.17
2022-09-23T00:39:30.723Z,26.70
2022-09-23T00:42:01.268Z,27.27
2022-09-23T00:44:48.238Z,24.02
2022-09-23T00:47:25.025Z,27.10
2022-09-23T00:50:07.018Z,28.35
2022-09-23T00:52:37.515Z,24.67
2022-09-23T00:55:14.042Z,26.25
2022-09-23T00:57:47.242Z,28.05
2022-09-23T01:00:17.007Z,26.95
2022-09-23T01:02:46.771Z,26.35
2022-09-23T01:05:18.315Z,28.65
2022-09-23T01:07:48.365Z,24.48
2022-09-23T01:10:19.646Z,25.00
2022-09-23T01:13:15.669Z,30.15
2022-09-23T01:15:50.812Z,27.20
2022-09-23T01:18:33.417Z,29.27
2022-09-23T01:21:22.810Z,32.72
2022-09-23T01:24:31.520Z,39.15
2022-09-23T01:27:12.031Z,44.95
2022-09-23T01:30:17.175Z,47.13
2022-09-23T01:33:10.949Z,47.97
2022-09-23T01:35:51.312Z,40.75
2022-09-23T01:38:37.490Z,41.60
2022-09-23T01:41:30.130Z,34.38
2022-09-23T01:44:07.278Z,31.63
2022-09-23T01:46:45.881Z,33.15
2022-09-23T01:49:21.616Z,32.05
2022-09-23T01:51:58.173Z,29.75
2022-09-23T01:54:38.883Z,29.67
2022-09-23T01:57:14.067Z,26.73
2022-09-23T01:59:49.049Z,29.08
2022-09-23T02:02:26.703Z,30.48
2022-09-23T02:05:03.864Z,30.10
2022-09-23T02:07:41.768Z,31.55
2022-09-23T02:10:19.697Z,26.20
2022-09-23T02:12:51.340Z,33.95
2022-09-23T02:15:24.901Z,31.23
2022-09-23T02:18:03.053Z,30.25
2022-09-23T02:20:39.732Z,25.63
2022-09-23T02:23:13.174Z,29.63
2022-09-23T02:25:51.608Z,29.50
2022-09-23T02:28:32.440Z,28.90
2022-09-23T02:31:09.526Z,32.80
2022-09-23T02:33:44.859Z,26.65
2022-09-23T02:36:25.834Z,31.20
2022-09-23T02:39:00.498Z,27.50
2022-09-23T02:41:34.770Z,28.45
2022-09-23T02:44:08.702Z,27.55
2022-09-23T02:46:39.127Z,30.17
2022-09-23T02:49:14.877Z,33.70
2022-09-23T02:51:45.911Z,25.20
2022-09-23T02:54:18.184Z,32.20
2022-09-23T02:56:48.355Z,29.35
2022-09-23T02:59:19.585Z,30.17
2022-09-23T03:02:14.297Z,35.97
2022-09-23T03:04:57.109Z,25.80
2022-09-23T03:07:37.422Z,28.33
2022-09-23T03:10:16.508Z,35.30
2022-09-23T03:12:54.074Z,29.15
2022-09-23T03:15:35.611Z,31.83
2022-09-23T03:18:16.742Z,28.45
2022-09-23T03:20:52.480Z,31.08
2022-09-23T03:23:30.595Z,30.08
2022-09-23T03:26:06.170Z,29.98
2022-09-23T03:28:38.551Z,31.67
2022-09-23T03:31:08.440Z,27.15
2022-09-23T03:33:40.471Z,31.17
2022-09-23T03:36:38.757Z,27.05
2022-09-23T03:39:17.473Z,26.42
2022-09-23T03:41:52.447Z,30.95
2022-09-23T03:44:23.488Z,27.05
2022-09-23T03:46:52.945Z,32.50
2022-09-23T03:49:28.548Z,34.72
2022-09-23T03:51:58.487Z,31.15
2022-09-23T03:54:30.070Z,39.88
2022-09-23T03:56:59.849Z,32.00
2022-09-23T03:59:30.448Z,41.53
2022-09-23T04:02:00.418Z,44.15
2022-09-23T04:04:29.782Z,45.92
2022-09-23T04:06:59.221Z,55.88
2022-09-23T04:09:29.754Z,54.85
2022-09-23T04:11:58.988Z,64.13
2022-09-23T04:14:28.367Z,65.45
2022-09-23T04:16:57.616Z,63.30
2022-09-23T04:19:26.879Z,55.25
2022-09-23T04:21:56.103Z,51.78
2022-09-23T04:24:25.510Z,47.35
2022-09-23T04:26:57.609Z,44.03
2022-09-23T04:29:27.776Z,35.50
2022-09-23T04:31:57.885Z,37.05
2022-09-23T04:34:27.059Z,39.05
2022-09-23T04:36:56.265Z,37.47
2022-09-23T04:39:25.370Z,36.03
2022-09-23T04:41:55.840Z,33.88
2022-09-23T04:44:26.874Z,34.63
2022-09-23T04:46:56.229Z,33.78
2022-09-23T04:49:26.327Z,33.47
2022-09-23T04:51:55.775Z,36.60
2022-09-23T04:54:26.528Z,36.10
2022-09-23T04:56:57.222Z,45.47
2022-09-23T04:59:26.727Z,51.97
2022-09-23T05:01:56.027Z,63.88
2022-09-23T05:04:25.228Z,68.55
2022-09-23T05:06:54.381Z,69.32
2022-09-23T05:09:23.493Z,61.80
2022-09-23T05:11:52.680Z,50.08
2022-09-23T05:14:23.480Z,50.28
2022-09-23T05:16:52.709Z,49.10
2022-09-23T05:19:21.916Z,50.42
2022-09-23T05:21:51.048Z,50.33
2022-09-23T05:24:20.305Z,46.95
2022-09-23T05:26:49.404Z,45.47
2022-09-23T05:29:18.934Z,45.13
2022-09-23T05:31:49.482Z,49.70
2022-09-23T05:34:19.176Z,48.33
2022-09-23T05:36:48.349Z,44.75
2022-09-23T05:39:17.664Z,42.22
2022-09-23T05:41:46.803Z,40.35
2022-09-23T05:44:15.946Z,41.97
2022-09-23T05:46:45.165Z,46.33
2022-09-23T05:49:15.808Z,45.65
2022-09-23T05:51:45.066Z,45.83
2022-09-23T05:54:14.227Z,42.03
2022-09-23T05:56:43.898Z,40.67
2022-09-23T05:59:13.032Z,38.25
2022-09-23T06:01:46.361Z,31.20
2022-09-23T06:04:17.034Z,36.40
2022-09-23T06:06:46.410Z,36.72
2022-09-23T06:09:16.498Z,35.83
2022-09-23T06:11:46.159Z,31.70
2022-09-23T06:14:16.025Z,31.90
2022-09-23T06:16:45.234Z,30.63
2022-09-23T06:19:14.373Z,34.38
2022-09-23T06:21:44.956Z,48.38
2022-09-23T06:24:18.261Z,39.97
2022-09-23T06:26:50.101Z,32.47
2022-09-23T06:29:19.649Z,32.22
2022-09-23T06:31:50.822Z,36.17
2022-09-23T06:34:20.592Z,33.00
2022-09-23T06:36:51.959Z,34.60
2022-09-23T06:39:21.022Z,35.45
2022-09-23T06:41:50.108Z,31.52
2022-09-23T06:44:19.388Z,30.88
2022-09-23T06:46:48.615Z,34.63
2022-09-23T06:49:17.893Z,38.00
2022-09-23T06:51:47.030Z,34.30
2022-09-23T06:54:17.605Z,34.72
2022-09-23T06:56:47.547Z,28.65
2022-09-23T06:59:18.447Z,34.50
2022-09-23T07:01:48.627Z,42.47
2022-09-23T07:04:18.000Z,51.50
2022-09-23T07:06:47.126Z,72.25
2022-09-23T07:09:17.714Z,94.28
2022-09-23T07:11:48.696Z,101.55
2022-09-23T07:14:17.946Z,109.47
2022-09-23T07:16:49.886Z,125.35
2022-09-23T07:19:19.173Z,114.03
2022-09-23T07:21:48.468Z,92.20
2022-09-23T07:24:19.155Z,84.70
2022-09-23T07:26:49.024Z,60.50
2022-09-23T07:29:18.278Z,65.82
2022-09-23T07:31:47.376Z,63.60
2022-09-23T07:34:16.490Z,66.38
2022-09-23T07:36:45.576Z,78.32
2022-09-23T07:39:15.151Z,56.13
2022-09-23T07:41:45.606Z,65.13
2022-09-23T07:44:14.956Z,58.90
2022-09-23T07:46:44.169Z,107.15
2022-09-23T07:49:13.709Z,58.13
2022-09-23T07:51:46.240Z,56.28
2022-09-23T07:54:17.578Z,56.10
2022-09-23T07:56:48.769Z,54.38
2022-09-23T07:59:20.292Z,54.50
2022-09-23T08:01:52.760Z,57.90
2022-09-23T08:06:55.260Z,54.25
2022-09-23T08:09:26.945Z,62.88
2022-09-23T08:11:57.461Z,68.13
2022-09-23T08:14:27.039Z,73.75
2022-09-23T08:16:56.932Z,56.60
2022-09-23T08:19:26.134Z,70.28
2022-09-23T08:21:55.333Z,55.55
2022-09-23T08:24:26.599Z,74.28
2022-09-23T08:26:57.439Z,58.55
2022-09-23T08:29:27.673Z,64.57
2022-09-23T08:31:57.238Z,52.95
2022-09-23T08:34:29.386Z,70.15
2022-09-23T08:36:58.556Z,55.80
2022-09-23T08:39:27.791Z,50.97
2022-09-23T08:42:20.125Z,55.75
2022-09-23T08:44:54.387Z,63.92
2022-09-23T08:47:28.051Z,110.57
2022-09-23T08:50:07.326Z,114.93
2022-09-23T08:52:43.290Z,129.98
2022-09-23T08:55:15.019Z,178.65
2022-09-23T08:58:23.917Z,131.40
2022-09-23T09:01:04.076Z,158.68
2022-09-23T09:03:39.392Z,122.43
2022-09-23T09:06:14.080Z,184.93
2022-09-23T09:08:45.479Z,168.88
2022-09-23T09:11:17.409Z,90.35
2022-09-23T09:13:58.910Z,102.03
2022-09-23T09:16:59.661Z,94.50
2022-09-23T09:19:59.395Z,144.65
2022-09-23T09:22:53.871Z,82.57
2022-09-23T09:25:44.651Z,70.20
2022-09-23T09:28:23.453Z,71.88
2022-09-23T09:30:59.940Z,87.05
2022-09-23T09:33:36.868Z,86.70
2022-09-23T09:36:26.885Z,129.65
2022-09-23T09:38:58.806Z,109.15
2022-09-23T09:41:31.644Z,111.00
2022-09-23T09:44:08.892Z,225.55
2022-09-23T09:46:54.671Z,249.13
2022-09-23T09:49:39.501Z,261.02
2022-09-23T09:52:20.093Z,216.85
2022-09-23T09:54:51.040Z,312.77
2022-09-23T09:57:35.833Z,341.92
2022-09-23T10:00:46.195Z,323.58
2022-09-23T10:03:40.095Z,299.33
2022-09-23T10:06:20.662Z,322.65
2022-09-23T10:09:14.034Z,302.90
2022-09-23T10:11:44.763Z,300.13
2022-09-23T10:14:18.767Z,300.63
2022-09-23T10:17:05.503Z,269.05
2022-09-23T10:19:39.407Z,277.13
2022-09-23T10:22:20.696Z,257.20
2022-09-23T10:24:52.727Z,246.63
2022-09-23T10:27:32.060Z,277.60
2022-09-23T10:30:04.597Z,255.55
2022-09-23T10:32:37.402Z,311.42
2022-09-23T10:35:18.119Z,293.52
2022-09-23T10:37:50.718Z,276.85
2022-09-23T10:43:51.967Z,267.83
2022-09-23T10:46:41.757Z,324.40
2022-09-23T10:49:36.676Z,308.50
2022-09-23T10:52:24.476Z,310.95
2022-09-23T10:55:08.052Z,313.10
2022-09-23T10:57:53.762Z,266.00
2022-09-23T11:00:29.521Z,260.67
2022-09-23T11:03:40.356Z,282.73
2022-09-23T11:06:25.199Z,274.67
2022-09-23T11:09:18.036Z,252.95
2022-09-23T11:12:06.893Z,268.77
2022-09-23T11:15:16.659Z,306.85
2022-09-23T11:18:30.449Z,297.50
2022-09-23T11:21:14.428Z,281.05
2022-09-23T11:24:08.859Z,271.13
2022-09-23T11:26:48.276Z,290.50
2022-09-23T11:29:36.542Z,306.15
2022-09-23T11:32:34.647Z,248.93
2022-09-23T11:35:16.538Z,259.85
2022-09-23T11:37:51.619Z,287.55
2022-09-23T11:40:30.242Z,303.55
2022-09-23T11:43:07.313Z,280.88
2022-09-23T11:45:41.190Z,309.45
2022-09-23T11:48:18.197Z,264.55
2022-09-23T11:50:55.595Z,261.20
2022-09-23T11:53:40.025Z,275.30
2022-09-23T11:56:31.900Z,224.40
2022-09-23T11:59:11.632Z,214.60
2022-09-23T12:01:47.968Z,215.82
2022-09-23T12:04:27.245Z,204.02
2022-09-23T12:07:02.741Z,226.98
2022-09-23T12:09:57.788Z,234.35
2022-09-23T12:12:39.143Z,209.63
2022-09-23T12:15:35.608Z,205.55
2022-09-23T12:18:43.998Z,283.65
2022-09-23T12:21:56.878Z,233.88
2022-09-23T12:24:56.696Z,265.75
2022-09-23T12:27:36.691Z,265.35
2022-09-23T12:30:14.626Z,230.82
2022-09-23T12:32:44.361Z,236.27
2022-09-23T12:35:24.224Z,272.80
2022-09-23T12:37:54.227Z,269.65
2022-09-23T12:40:31.224Z,292.85
2022-09-23T12:43:03.567Z,294.85
2022-09-23T12:45:41.551Z,263.08
2022-09-23T12:48:47.984Z,264.30
2022-09-23T12:51:23.547Z,273.33
2022-09-23T12:54:23.046Z,365.77
2022-09-23T12:57:11.127Z,290.77
2022-09-23T13:00:16.285Z,260.33
2022-09-23T13:03:16.492Z,220.65
2022-09-23T13:06:09.120Z,233.23
2022-09-23T13:08:41.753Z,208.75
2022-09-23T13:11:28.481Z,164.10
2022-09-23T13:14:01.111Z,188.38
2022-09-23T13:16:37.109Z,262.17
2022-09-23T13:19:08.285Z,209.25
2022-09-23T13:22:14.470Z,194.52
2022-09-23T13:24:53.389Z,207.45
2022-09-23T13:27:28.816Z,170.00
2022-09-23T13:30:04.084Z,183.15
2022-09-23T13:32:40.768Z,193.00
2022-09-23T13:35:24.366Z,187.52
2022-09-23T13:37:54.377Z,215.98
2022-09-23T13:40:26.793Z,206.95
2022-09-23T13:43:01.413Z,233.20
2022-09-23T13:45:32.481Z,187.60
2022-09-23T13:48:07.430Z,232.15
2022-09-23T13:50:40.948Z,234.25
2022-09-23T13:53:14.370Z,276.38
2022-09-23T13:55:43.629Z,223.60
2022-09-23T13:58:20.302Z,190.15
2022-09-23T14:00:50.906Z,179.35
2022-09-23T14:03:36.091Z,181.20
2022-09-23T14:06:10.964Z,202.85
2022-09-23T14:08:43.037Z,208.55
2022-09-23T14:11:17.652Z,213.00
2022-09-23T14:13:50.063Z,261.80
2022-09-23T14:18:53.025Z,233.38
2022-09-23T14:21:35.313Z,255.38
2022-09-23T14:24:17.247Z,272.65
2022-09-23T14:26:50.935Z,269.03
2022-09-23T14:29:25.493Z,256.02
2022-09-23T14:32:00.302Z,274.88
2022-09-23T14:35:09.328Z,227.95
2022-09-23T14:38:02.254Z,258.48
2022-09-23T14:40:34.168Z,261.20
2022-09-23T14:43:07.985Z,279.00
2022-09-23T14:45:40.589Z,266.02
2022-09-23T14:48:15.644Z,233.85
2022-09-23T14:50:52.572Z,247.80
2022-09-23T14:53:37.655Z,294.33
2022-09-23T14:56:20.493Z,249.77
2022-09-23T14:58:55.477Z,216.70
2022-09-23T15:01:39.217Z,270.08
2022-09-23T15:04:16.993Z,275.45
2022-09-23T15:06:55.913Z,219.63
2022-09-23T15:09:28.399Z,205.18
2022-09-23T15:14:39.778Z,247.15
2022-09-23T15:17:32.698Z,190.02
2022-09-23T15:20:06.670Z,234.57
2022-09-23T15:22:46.231Z,220.55
2022-09-23T15:25:22.690Z,216.93
2022-09-23T15:28:05.913Z,175.30
2022-09-23T15:30:38.245Z,177.95
2022-09-23T15:33:09.094Z,164.68
2022-09-23T15:35:40.416Z,144.27
2022-09-23T15:38:12.387Z,137.27
2022-09-23T15:40:41.701Z,146.63
2022-09-23T15:43:21.183Z,146.70
2022-09-23T15:45:53.287Z,134.63
2022-09-23T15:48:26.159Z,113.20
2022-09-23T15:50:56.012Z,100.53
2022-09-23T15:53:28.506Z,143.35
2022-09-23T15:55:58.755Z,118.50
2022-09-23T15:58:28.341Z,106.35
2022-09-23T16:00:58.372Z,97.22
2022-09-23T16:03:29.405Z,77.97
2022-09-23T16:06:02.456Z,93.35
2022-09-23T16:08:33.510Z,110.25
2022-09-23T16:11:03.506Z,95.50
2022-09-23T16:13:32.696Z,97.40
2022-09-23T16:16:02.271Z,65.63
2022-09-23T16:18:31.561Z,60.92
2022-09-23T16:21:00.749Z,78.38
2022-09-23T16:23:38.933Z,66.38
2022-09-23T16:26:15.291Z,71.30
2022-09-23T16:28:45.214Z,99.10
2022-09-23T16:31:16.297Z,78.75
2022-09-23T16:33:47.012Z,73.18
2022-09-23T16:36:25.987Z,56.38
2022-09-23T16:38:58.031Z,53.58
2022-09-23T16:41:29.651Z,62.13
2022-09-23T16:44:00.856Z,49.67
2022-09-23T16:46:31.662Z,57.92
2022-09-23T16:49:05.448Z,61.88
2022-09-23T16:51:38.674Z,50.42
2022-09-23T16:54:12.023Z,54.60
2022-09-23T16:56:45.383Z,52.33
2022-09-23T16:59:15.687Z,52.08
2022-09-23T17:02:02.552Z,57.38
2022-09-23T17:04:31.870Z,50.03
2022-09-23T17:07:01.039Z,55.67
2022-09-23T17:09:33.174Z,52.63
2022-09-23T17:12:13.840Z,53.22
2022-09-23T17:14:43.805Z,52.10
2022-09-23T17:17:13.930Z,50.45
2022-09-23T17:19:43.184Z,52.33
2022-09-23T17:22:12.317Z,49.85
2022-09-23T17:24:42.943Z,52.95
2022-09-23T17:27:12.139Z,53.60
2022-09-23T17:29:41.346Z,53.88
2022-09-23T17:32:13.250Z,58.63
2022-09-23T17:34:44.089Z,51.75
2022-09-23T17:37:13.332Z,60.35
2022-09-23T17:39:43.966Z,52.10
2022-09-23T17:42:13.307Z,56.30
2022-09-23T17:44:42.445Z,59.65
2022-09-23T17:47:11.546Z,50.25
2022-09-23T17:49:40.701Z,51.72
2022-09-23T17:52:10.148Z,52.65
2022-09-23T17:54:39.323Z,53.78
2022-09-23T17:57:09.941Z,61.17
2022-09-23T17:59:39.264Z,55.08
2022-09-23T18:02:10.583Z,55.58
2022-09-23T18:04:42.954Z,55.15
2022-09-23T18:07:12.086Z,50.92
2022-09-23T18:09:41.213Z,51.85
2022-09-23T18:12:11.846Z,52.67
2022-09-23T18:14:40.954Z,51.30
2022-09-23T18:17:11.054Z,55.55
2022-09-23T18:19:40.254Z,54.33
2022-09-23T18:22:09.430Z,54.97
2022-09-23T18:24:41.209Z,56.28
2022-09-23T18:27:11.722Z,62.73
2022-09-23T18:29:40.862Z,53.28
2022-09-23T18:32:13.960Z,57.38
2022-09-23T18:34:43.653Z,61.60
2022-09-23T18:37:16.027Z,51.10
2022-09-23T18:39:45.317Z,58.00
2022-09-23T18:42:15.865Z,61.50
2022-09-23T18:44:45.070Z,63.92
2022-09-23T18:47:34.147Z,59.25
2022-09-23T18:50:20.913Z,53.33
2022-09-23T18:52:49.991Z,48.47
2022-09-23T18:55:19.793Z,57.03
2022-09-23T18:57:50.284Z,48.63
2022-09-23T19:00:19.898Z,50.28
2022-09-23T19:02:49.010Z,49.72
2022-09-23T19:05:19.073Z,55.75
2022-09-23T19:07:48.262Z,61.17
2022-09-23T19:10:19.264Z,58.28
2022-09-23T19:12:50.022Z,54.72
2022-09-23T19:15:19.360Z,59.10
2022-09-23T19:17:48.497Z,61.78
2022-09-23T19:20:17.789Z,68.55
2022-09-23T19:22:48.425Z,71.75
2022-09-23T19:25:17.883Z,79.78
2022-09-23T19:27:47.040Z,81.55
2022-09-23T19:30:19.246Z,70.68
2022-09-23T19:32:49.118Z,107.15
2022-09-23T19:35:18.448Z,82.20
2022-09-23T19:37:49.436Z,91.82
2022-09-23T19:40:18.770Z,98.82
2022-09-23T19:42:47.969Z,80.20
2022-09-23T19:45:18.881Z,74.22
2022-09-23T19:47:48.443Z,79.68
2022-09-23T19:50:19.228Z,95.97
2022-09-23T19:52:51.865Z,97.38
2022-09-23T19:57:50.514Z,114.22
2022-09-23T20:00:21.458Z,94.65
2022-09-23T20:02:53.271Z,103.72
2022-09-23T20:05:23.285Z,88.17
2022-09-23T20:07:52.908Z,106.80
2022-09-23T20:10:22.794Z,78.80
2022-09-23T20:12:51.986Z,98.72
2022-09-23T20:15:23.348Z,73.03
2022-09-23T20:17:55.470Z,90.78
2022-09-23T20:20:28.489Z,91.47
2022-09-23T20:22:57.898Z,106.47
2022-09-23T20:25:27.105Z,119.85
2022-09-23T20:27:57.817Z,121.20
2022-09-23T20:30:39.640Z,88.00
2022-09-23T20:33:08.954Z,99.43
2022-09-23T20:35:39.150Z,107.57
2022-09-23T20:38:08.349Z,94.20
2022-09-23T20:40:38.850Z,101.68
2022-09-23T20:43:08.102Z,120.85
2022-09-23T20:45:38.753Z,106.95
2022-09-23T20:48:11.416Z,115.07
2022-09-23T20:53:12.280Z,111.65
2022-09-23T20:55:51.479Z,114.13
2022-09-23T20:58:29.269Z,103.75
2022-09-23T21:01:04.642Z,115.65
2022-09-23T21:03:34.988Z,112.85
2022-09-23T21:06:05.828Z,100.32
2022-09-23T21:08:39.440Z,111.13
2022-09-23T21:11:11.602Z,91.97
2022-09-23T21:13:41.076Z,124.75
2022-09-23T21:16:12.870Z,119.20
2022-09-23T21:18:42.077Z,123.60
2022-09-23T21:21:14.205Z,121.90
2022-09-23T21:23:44.079Z,108.22
2022-09-23T21:26:15.481Z,114.22
2022-09-23T21:28:46.656Z,114.25
2022-09-23T21:31:24.079Z,97.95
2022-09-23T21:33:59.146Z,109.18
2022-09-23T21:36:30.068Z,84.38
2022-09-23T21:39:02.258Z,67.57
2022-09-23T21:41:31.599Z,76.47
2022-09-23T21:44:03.397Z,60.45
2022-09-23T21:46:35.312Z,55.77
2022-09-23T21:49:05.171Z,56.83
2022-09-23T21:51:40.715Z,44.80
2022-09-23T21:54:14.550Z,38.05
2022-09-23T21:56:46.240Z,38.47
2022-09-23T21:59:15.399Z,41.92
2022-09-23T22:01:48.347Z,38.97
2022-09-23T22:04:21.191Z,37.25
2022-09-23T22:06:50.435Z,36.40
2022-09-23T22:09:22.603Z,38.72
2022-09-23T22:12:10.981Z,35.63
2022-09-23T22:14:43.457Z,37.20
2022-09-23T22:17:16.570Z,41.42
2022-09-23T22:19:47.157Z,39.80
2022-09-23T22:22:18.522Z,40.50
2022-09-23T22:24:48.590Z,44.75
2022-09-23T22:27:21.909Z,46.65
2022-09-23T22:30:08.191Z,49.97
2022-09-23T22:32:41.847Z,39.08
2022-09-23T22:35:13.515Z,44.35
2022-09-23T22:37:43.035Z,49.08
2022-09-23T22:40:15.312Z,61.28
2022-09-23T22:42:45.014Z,65.03
2022-09-23T22:45:14.670Z,58.95
2022-09-23T22:47:46.054Z,59.15
2022-09-23T22:50:15.914Z,56.55
2022-09-23T22:52:45.115Z,66.43
2022-09-23T22:55:14.335Z,58.75
2022-09-23T22:57:43.505Z,61.47
2022-09-23T23:00:14.156Z,65.57
2022-09-23T23:02:44.691Z,58.85
2022-09-23T23:05:14.596Z,64.40
2022-09-23T23:07:43.686Z,75.22
2022-09-23T23:10:14.262Z,67.57
2022-09-23T23:12:43.576Z,68.55
2022-09-23T23:15:12.989Z,62.83
2022-09-23T23:17:43.823Z,57.47
2022-09-23T23:20:14.691Z,64.43
2022-09-23T23:22:43.919Z,62.75
2022-09-23T23:25:13.128Z,60.40
2022-09-23T23:27:42.254Z,67.80
2022-09-23T23:30:12.610Z,64.00
